Time;durP1;ratioP1;P1;durP2;ratioP2;P2;SDS_P1;SDS_P2;PMS_P1;PMS_P2;Temp;Humidity;BMP_temperature;BMP_pressure;BME280_temperature;BME280_humidity;BME280_pressure;Samples;Min_cycle;Max_cycle;Signal;HPM_P1;HPM_P2
2024/02/12 00:00:28;;;;;;;4.15;1.88;;;;;;;12.19;100.00;96198.75;5009791;28;20033;-77
2024/02/12 00:02:54;;;;;;;5.85;2.33;;;;;;;12.14;100.00;96198.34;5004006;28;20046;-76
2024/02/12 00:05:21;;;;;;;2.50;1.48;;;;;;;12.17;100.00;96214.16;4990017;28;20022;-76
2024/02/12 00:07:47;;;;;;;8.45;1.38;;;;;;;12.29;100.00;96207.69;5010081;28;20430;-77
2024/02/12 00:10:13;;;;;;;3.65;1.45;;;;;;;12.11;100.00;96212.03;4991729;28;20030;-77
2024/02/12 00:12:42;;;;;;;7.50;1.55;;;;;;;11.58;100.00;96227.44;4993017;28;20034;-77
2024/02/12 00:15:11;;;;;;;4.30;1.77;;;;;;;11.29;100.00;96231.75;4993301;28;20025;-77
2024/02/12 00:17:41;;;;;;;0.10;0.10;;;;;;;10.99;100.00;96232.56;4977180;28;20053;-77
2024/02/12 00:20:10;;;;;;;0.00;0.00;;;;;;;10.75;100.00;96230.13;4993340;28;20374;-76
2024/02/12 00:22:40;;;;;;;0.00;0.00;;;;;;;10.64;100.00;96234.69;4999559;28;20049;-76
2024/02/12 00:25:07;;;;;;;0.00;0.00;;;;;;;10.54;100.00;96229.25;4990131;28;20415;-77
2024/02/12 00:27:34;;;;;;;1.10;0.47;;;;;;;10.60;100.00;96241.25;5006165;28;20022;-76
2024/02/12 00:30:00;;;;;;;0.00;0.00;;;;;;;10.55;100.00;96224.75;4986351;28;20033;-77
2024/02/12 00:32:28;;;;;;;0.00;0.00;;;;;;;10.61;100.00;96202.84;5009343;28;20417;-78
2024/02/12 00:34:56;;;;;;;1.08;0.52;;;;;;;10.60;100.00;96215.38;4993538;28;20053;-77
2024/02/12 00:37:25;;;;;;;0.40;0.30;;;;;;;10.65;100.00;96214.97;4976988;28;20062;-77
2024/02/12 00:39:52;;;;;;;0.00;0.00;;;;;;;10.63;100.00;96198.22;4981139;28;20118;-77
2024/02/12 00:42:18;;;;;;;0.05;0.03;;;;;;;10.65;100.00;96201.59;4981495;28;20060;-76
2024/02/12 00:44:44;;;;;;;0.70;0.70;;;;;;;10.57;100.00;96214.78;4993239;28;20029;-77
2024/02/12 00:47:10;;;;;;;1.17;0.93;;;;;;;10.48;100.00;96218.22;5004058;28;20034;-77
2024/02/12 00:49:35;;;;;;;3.30;0.82;;;;;;;10.41;100.00;96215.19;4995547;28;20044;-76
2024/02/12 00:52:03;;;;;;;0.08;0.08;;;;;;;10.33;100.00;96213.16;5013523;28;20033;-76
2024/02/12 00:54:30;;;;;;;3.53;1.08;;;;;;;10.29;100.00;96221.56;5013351;28;20030;-76
2024/02/12 00:56:57;;;;;;;0.52;0.40;;;;;;;10.13;100.00;96208.59;4984395;28;20112;-77
2024/02/12 00:59:26;;;;;;;0.00;0.00;;;;;;;10.28;100.00;96226.03;4985647;28;20036;-77
2024/02/12 01:01:51;;;;;;;0.93;0.15;;;;;;;10.20;100.00;96220.50;4996694;28;20057;-77
2024/02/12 01:04:17;;;;;;;0.75;0.30;;;;;;;10.21;100.00;96224.00;4988804;28;20033;-78
2024/02/12 01:06:43;;;;;;;0.10;0.10;;;;;;;10.25;100.00;96228.97;5004684;28;20049;-78
2024/02/12 01:09:13;;;;;;;0.00;0.00;;;;;;;10.16;100.00;96216.34;4996730;28;20374;-76
2024/02/12 01:11:39;;;;;;;0.00;0.00;;;;;;;10.14;100.00;96202.28;5011314;28;20061;-77
2024/02/12 01:14:06;;;;;;;0.00;0.00;;;;;;;10.18;100.00;96208.22;4978396;28;20030;-76
2024/02/12 01:16:32;;;;;;;0.10;0.10;;;;;;;10.23;100.00;96203.34;4995796;28;20120;-76
2024/02/12 01:19:02;;;;;;;0.08;0.08;;;;;;;10.18;100.00;96198.38;4993136;28;20109;-78
2024/02/12 01:21:29;;;;;;;0.60;0.20;;;;;;;10.12;100.00;96190.81;4976935;28;20030;-77
2024/02/12 01:23:54;;;;;;;0.10;0.10;;;;;;;10.13;100.00;96183.66;4996455;28;20168;-77
2024/02/12 01:26:21;;;;;;;0.38;0.38;;;;;;;10.15;100.00;96185.25;4993453;28;20113;-76
2024/02/12 01:28:46;;;;;;;0.00;0.00;;;;;;;10.17;100.00;96183.34;4995176;28;20034;-76
2024/02/12 01:31:19;;;;;;;0.00;0.00;;;;;;;10.18;100.00;96176.19;5012687;28;20535;-77
2024/02/12 01:33:46;;;;;;;0.00;0.00;;;;;;;10.20;100.00;96185.75;5004131;28;20482;-75
2024/02/12 01:36:13;;;;;;;1.00;0.50;;;;;;;10.16;100.00;96186.97;4996064;28;20088;-77
2024/02/12 01:38:40;;;;;;;0.52;0.52;;;;;;;9.97;100.00;96157.34;4979057;28;20355;-76
2024/02/12 01:41:06;;;;;;;0.00;0.00;;;;;;;9.98;100.00;96177.75;4976371;28;20022;-76
2024/02/12 01:43:31;;;;;;;0.03;0.03;;;;;;;10.03;100.00;96180.06;4988739;28;20049;-76
2024/02/12 01:45:59;;;;;;;0.10;0.10;;;;;;;10.05;100.00;96173.63;4992646;28;20026;-76
2024/02/12 01:48:25;;;;;;;0.00;0.00;;;;;;;10.09;100.00;96164.38;5007537;28;20537;-77
2024/02/12 01:50:52;;;;;;;0.10;0.10;;;;;;;10.18;100.00;96168.97;4995865;28;20088;-77
2024/02/12 01:53:19;;;;;;;0.70;0.43;;;;;;;10.18;100.00;96166.31;5012095;28;20033;-76
2024/02/12 01:55:47;;;;;;;1.52;1.02;;;;;;;10.26;100.00;96163.88;4990075;28;20455;-77
2024/02/12 01:58:16;;;;;;;0.80;0.57;;;;;;;10.34;100.00;96145.34;4975505;28;20096;-76
2024/02/12 02:00:45;;;;;;;0.43;0.22;;;;;;;10.27;100.00;96141.50;4975997;28;20430;-77
2024/02/12 02:03:11;;;;;;;0.20;0.20;;;;;;;10.32;100.00;96128.63;4993036;28;20041;-76
2024/02/12 02:05:36;;;;;;;2.17;1.27;;;;;;;10.37;100.00;96136.22;4995677;28;20033;-76
2024/02/12 02:08:08;;;;;;;0.55;0.45;;;;;;;10.41;100.00;96136.81;4980158;28;20540;-76
2024/02/12 02:10:34;;;;;;;1.55;0.52;;;;;;;10.38;100.00;96116.56;4980219;28;20037;-76
2024/02/12 02:13:03;;;;;;;0.10;0.10;;;;;;;10.39;100.00;96112.06;4975975;28;20026;-76
2024/02/12 02:15:35;;;;;;;0.28;0.22;;;;;;;10.28;100.00;96110.28;5002986;28;20076;-77
2024/02/12 02:18:03;;;;;;;0.20;0.20;;;;;;;10.27;100.00;96109.44;4995697;28;20054;-76
2024/02/12 02:20:30;;;;;;;0.65;0.65;;;;;;;10.29;100.00;96117.34;4980999;28;20034;-76
2024/02/12 02:22:56;;;;;;;0.03;0.03;;;;;;;10.28;100.00;96100.44;4992188;28;20089;-76
2024/02/12 02:25:25;;;;;;;0.00;0.00;;;;;;;10.24;100.00;96112.34;4989209;28;20030;-75
2024/02/12 02:27:50;;;;;;;0.00;0.00;;;;;;;10.30;100.00;96119.84;4995307;28;20494;-76
2024/02/12 02:30:16;;;;;;;2.35;0.57;;;;;;;10.28;100.00;96120.97;4987067;28;20026;-76
2024/02/12 02:32:42;;;;;;;0.00;0.00;;;;;;;10.43;100.00;96137.56;4991542;28;20030;-75
2024/02/12 02:35:08;;;;;;;0.17;0.17;;;;;;;10.44;100.00;96121.38;4991632;28;20030;-76
2024/02/12 02:37:35;;;;;;;0.00;0.00;;;;;;;10.53;100.00;96127.78;4975486;28;20026;-76
2024/02/12 02:40:03;;;;;;;0.00;0.00;;;;;;;10.51;100.00;96127.06;4975527;28;20034;-77
2024/02/12 02:42:29;;;;;;;0.00;0.00;;;;;;;10.49;100.00;96129.03;4975954;28;20030;-77
2024/02/12 02:44:54;;;;;;;0.22;0.22;;;;;;;10.51;100.00;96122.56;4980709;28;20113;-76
2024/02/12 02:47:20;;;;;;;0.10;0.05;;;;;;;10.54;100.00;96126.81;4986083;28;20100;-76
2024/02/12 02:49:48;;;;;;;0.00;0.00;;;;;;;10.51;100.00;96127.94;4975393;28;20144;-76
2024/02/12 02:52:14;;;;;;;0.77;0.28;;;;;;;10.51;100.00;96124.41;4975703;28;20402;-76
2024/02/12 02:54:43;;;;;;;0.28;0.28;;;;;;;10.58;100.00;96128.25;5006473;28;20036;-77
2024/02/12 02:57:10;;;;;;;1.65;0.47;;;;;;;10.52;100.00;96120.75;4986370;28;20038;-76
2024/02/12 02:59:36;;;;;;;18.38;0.63;;;;;;;10.55;100.00;96124.00;4996576;28;20034;-77
2024/02/12 03:02:02;;;;;;;0.00;0.00;;;;;;;10.58;100.00;96117.56;4996905;28;20126;-77
2024/02/12 03:04:29;;;;;;;0.10;0.10;;;;;;;10.61;100.00;96131.50;5010498;28;20508;-76
2024/02/12 03:06:54;;;;;;;0.45;0.30;;;;;;;10.67;100.00;96122.13;4994383;28;20026;-76
2024/02/12 03:09:21;;;;;;;1.30;0.75;;;;;;;10.68;100.00;96115.78;5012033;28;20025;-76
2024/02/12 03:11:51;;;;;;;0.00;0.00;;;;;;;10.65;100.00;96108.03;4987093;28;20026;-77
2024/02/12 03:14:16;;;;;;;0.00;0.00;;;;;;;10.68;100.00;96123.81;4979774;28;20548;-77
2024/02/12 03:16:42;;;;;;;5.93;0.30;;;;;;;10.72;100.00;96135.94;4978938;28;20034;-77
2024/02/12 03:19:08;;;;;;;0.00;0.00;;;;;;;10.73;100.00;96143.00;4975529;28;20084;-76
2024/02/12 03:21:34;;;;;;;0.00;0.00;;;;;;;10.57;100.00;96137.25;4981036;28;20033;-77
2024/02/12 03:24:00;;;;;;;0.88;0.55;;;;;;;10.37;100.00;96151.44;5006964;28;20030;-76
2024/02/12 03:26:25;;;;;;;0.10;0.10;;;;;;;10.21;100.00;96157.22;4994118;28;20026;-76
2024/02/12 03:29:03;;;;;;;0.00;0.00;;;;;;;9.97;100.00;96140.47;4999610;28;20116;-76
2024/02/12 03:31:29;;;;;;;0.00;0.00;;;;;;;9.80;100.00;96147.22;4979318;28;20025;-78
2024/02/12 03:33:55;;;;;;;0.00;0.00;;;;;;;9.80;100.00;96164.09;4983031;28;20125;-76
2024/02/12 03:36:21;;;;;;;0.00;0.00;;;;;;;9.69;100.00;96160.59;5009561;28;20109;-75
2024/02/12 03:38:46;;;;;;;0.52;0.43;;;;;;;9.67;100.00;96167.84;4975759;28;20065;-75
2024/02/12 03:41:24;;;;;;;10.07;0.35;;;;;;;9.65;100.00;96184.00;4974507;28;20030;-77
2024/02/12 03:43:52;;;;;;;0.00;0.00;;;;;;;9.56;100.00;96171.41;4988747;28;20033;-77
2024/02/12 03:46:19;;;;;;;0.00;0.00;;;;;;;9.48;100.00;96163.16;4978863;28;20034;-76
2024/02/12 03:59:52;;;;;;;4.18;1.20;;;;;;;9.28;100.00;96163.88;5010069;28;20121;-75
2024/02/12 04:02:18;;;;;;;0.10;0.10;;;;;;;9.27;100.00;96160.38;4994656;28;20041;-77
2024/02/12 04:04:45;;;;;;;0.00;0.00;;;;;;;9.24;100.00;96160.63;4993495;28;20436;-77
2024/02/12 04:07:13;;;;;;;0.00;0.00;;;;;;;9.25;100.00;96148.97;4999929;28;20022;-74
2024/02/12 04:09:41;;;;;;;0.00;0.00;;;;;;;9.23;100.00;96148.22;4999109;28;20457;-75
2024/02/12 04:12:17;;;;;;;0.10;0.10;;;;;;;9.19;100.00;96137.94;4974973;28;20085;-75
2024/02/12 04:14:43;;;;;;;0.00;0.00;;;;;;;9.13;100.00;96139.28;5007291;28;20061;-76
2024/02/12 04:17:14;;;;;;;0.08;0.08;;;;;;;9.18;100.00;96136.22;4974350;28;20030;-77
2024/02/12 04:19:41;;;;;;;0.00;0.00;;;;;;;9.04;100.00;96105.34;4975112;28;20564;-76
2024/02/12 04:22:09;;;;;;;0.52;0.52;;;;;;;9.03;100.00;96097.44;4981330;28;20037;-75
2024/02/12 04:24:42;;;;;;;0.00;0.00;;;;;;;9.15;100.00;96091.13;4993644;28;20030;-76
2024/02/12 04:27:10;;;;;;;0.00;0.00;;;;;;;9.05;100.00;96080.34;4978743;28;20027;-76
2024/02/12 04:29:40;;;;;;;0.20;0.20;;;;;;;9.09;100.00;96075.63;5005996;28;20438;-76
2024/02/12 04:32:11;;;;;;;0.05;0.05;;;;;;;9.06;100.00;96070.53;4993340;28;20112;-77
2024/02/12 04:34:38;;;;;;;0.30;0.30;;;;;;;9.08;100.00;96058.75;4982803;28;20030;-76
2024/02/12 04:37:06;;;;;;;0.00;0.00;;;;;;;9.08;100.00;96048.09;4973654;28;20034;-77
2024/02/12 04:39:32;;;;;;;0.10;0.10;;;;;;;9.07;100.00;96025.09;4974051;28;20152;-76
2024/02/12 04:41:59;;;;;;;0.10;0.10;;;;;;;9.07;100.00;96005.56;4978986;28;20026;-77
2024/02/12 04:44:25;;;;;;;0.20;0.20;;;;;;;9.06;100.00;95995.84;4973470;28;20034;-78
2024/02/12 04:46:51;;;;;;;1.27;0.95;;;;;;;9.06;100.00;95969.19;4977537;28;20104;-77
2024/02/12 04:49:19;;;;;;;0.17;0.17;;;;;;;9.08;100.00;95960.09;4993065;28;20030;-76
2024/02/12 04:51:46;;;;;;;0.17;0.17;;;;;;;9.11;100.00;95983.00;4993027;28;20030;-77
2024/02/12 04:54:12;;;;;;;0.10;0.10;;;;;;;9.09;100.00;95993.78;5005689;28;20030;-75
2024/02/12 04:56:37;;;;;;;0.00;0.00;;;;;;;9.15;100.00;96014.63;4989199;28;20049;-76
2024/02/12 04:59:14;;;;;;;0.30;0.30;;;;;;;9.18;100.00;96010.88;4989938;28;20490;-77
2024/02/12 05:01:40;;;;;;;0.00;0.00;;;;;;;9.24;100.00;96013.03;4990252;28;20468;-78
2024/02/12 05:04:06;;;;;;;0.30;0.17;;;;;;;9.20;100.00;96007.09;4990813;28;20036;-78
2024/02/12 05:06:38;;;;;;;0.35;0.30;;;;;;;9.22;100.00;96020.31;4984574;28;20026;-76
2024/02/12 05:09:04;;;;;;;0.03;0.03;;;;;;;9.15;100.00;96011.97;5009640;28;20037;-78
2024/02/12 05:11:30;;;;;;;0.10;0.10;;;;;;;9.19;100.00;96015.25;4984726;28;20037;-73
2024/02/12 05:13:56;;;;;;;0.10;0.10;;;;;;;9.17;100.00;96017.16;4992691;28;20109;-73
2024/02/12 05:16:34;;;;;;;0.45;0.45;;;;;;;9.29;100.00;96039.34;4992592;28;20533;-74
2024/02/12 05:24:33;;;;;;;0.10;0.10;;;;;;;9.27;100.00;96061.66;5014907;28;20067;-74
2024/02/12 05:26:59;;;;;;;0.28;0.22;;;;;;;9.33;100.00;96070.13;5012166;28;20065;-74
2024/02/12 05:29:25;;;;;;;0.25;0.25;;;;;;;9.35;100.00;96069.03;5001915;28;20037;-79
2024/02/12 05:31:52;;;;;;;3.60;2.55;;;;;;;9.43;100.00;96095.97;4984118;28;20040;-75
2024/02/12 05:34:21;;;;;;;3.83;2.38;;;;;;;9.41;100.00;96113.06;5004959;28;20040;-73
2024/02/12 05:36:53;;;;;;;2.20;1.65;;;;;;;9.33;100.00;96113.66;4992031;28;20117;-74
2024/02/12 05:39:21;;;;;;;0.20;0.17;;;;;;;9.12;100.00;96092.22;4999352;28;20037;-74
2024/02/12 05:41:47;;;;;;;1.38;1.10;;;;;;;9.13;100.00;96088.59;5015603;28;20548;-74
2024/02/12 05:44:13;;;;;;;0.93;0.90;;;;;;;9.16;100.00;96088.34;4983222;28;20057;-74
2024/02/12 05:46:39;;;;;;;0.20;0.20;;;;;;;9.17;100.00;96083.84;4995510;28;20505;-73
2024/02/12 05:49:06;;;;;;;1.10;0.55;;;;;;;9.24;100.00;96093.06;4979758;28;20029;-73
2024/02/12 05:51:33;;;;;;;2.30;1.80;;;;;;;9.30;100.00;96094.38;5014530;28;20136;-72
2024/02/12 05:54:01;;;;;;;0.43;0.43;;;;;;;9.31;100.00;96093.44;5015499;28;20508;-74
2024/02/12 05:56:27;;;;;;;3.30;1.55;;;;;;;9.25;100.00;96089.44;5015320;28;20068;-74
2024/02/12 05:58:53;;;;;;;0.20;0.17;;;;;;;9.27;100.00;96091.00;5015392;28;20493;-73
2024/02/12 06:01:19;;;;;;;24.52;0.98;;;;;;;9.31;100.00;96078.28;4998806;28;20033;-72
2024/02/12 06:03:45;;;;;;;3.20;0.65;;;;;;;9.41;100.00;96081.06;4992071;28;20517;-72
2024/02/12 06:06:12;;;;;;;1.38;0.65;;;;;;;9.50;100.00;96069.63;4976129;28;20037;-73
2024/02/12 06:08:38;;;;;;;0.77;0.63;;;;;;;9.58;100.00;96061.84;5008294;28;20470;-73
2024/02/12 06:11:04;;;;;;;1.00;0.88;;;;;;;9.60;100.00;96059.88;5011518;28;20040;-74
2024/02/12 06:13:29;;;;;;;3.47;2.10;;;;;;;9.66;100.00;96056.69;4996660;28;20120;-74
2024/02/12 06:15:55;;;;;;;1.30;0.88;;;;;;;9.76;100.00;96049.63;4992052;28;20030;-74
2024/02/12 06:18:21;;;;;;;4.43;2.33;;;;;;;9.78;100.00;96037.03;4997495;28;20029;-74
2024/02/12 06:20:48;;;;;;;2.20;1.48;;;;;;;9.79;100.00;96022.69;4995513;28;20037;-75
2024/02/12 06:23:14;;;;;;;1.77;1.02;;;;;;;9.80;100.00;96017.22;5011361;28;20123;-76
2024/02/12 06:25:40;;;;;;;1.75;1.35;;;;;;;9.77;100.00;95998.81;5011498;28;20065;-75
2024/02/12 06:28:09;;;;;;;2.40;1.30;;;;;;;9.71;100.00;95987.78;5011528;28;20430;-76
2024/02/12 06:30:34;;;;;;;1.05;0.95;;;;;;;9.77;100.00;95989.94;4995423;28;20033;-74
2024/02/12 06:33:00;;;;;;;0.55;0.30;;;;;;;9.84;100.00;95992.94;5012577;28;20034;-73
2024/02/12 06:35:26;;;;;;;0.25;0.20;;;;;;;9.92;100.00;96001.16;5011389;28;20128;-72
2024/02/12 06:37:52;;;;;;;2.00;1.58;;;;;;;9.96;100.00;96006.13;5009989;28;20093;-73
2024/02/12 06:40:20;;;;;;;2.30;1.15;;;;;;;10.03;100.00;96003.78;4975484;28;20470;-74
2024/02/12 06:42:47;;;;;;;11.48;0.88;;;;;;;10.20;100.00;95990.72;4991808;28;20034;-74
2024/02/12 06:45:14;;;;;;;0.32;0.32;;;;;;;10.33;100.00;95996.72;5008372;28;20088;-73
2024/02/12 06:47:41;;;;;;;2.35;1.58;;;;;;;10.45;100.00;95991.28;5012155;28;20481;-73
2024/02/12 06:50:07;;;;;;;1.65;1.20;;;;;;;10.60;100.00;95990.78;5011162;28;20048;-73
2024/02/12 06:52:33;;;;;;;2.80;2.35;;;;;;;10.67;100.00;95993.78;4999508;28;20557;-74
2024/02/12 06:54:59;;;;;;;3.42;1.95;;;;;;;10.73;100.00;96001.25;4975137;28;20719;-74
2024/02/12 06:57:25;;;;;;;2.08;1.55;;;;;;;10.74;100.00;96003.78;4987855;28;20088;-74
2024/02/12 06:59:50;;;;;;;0.47;0.38;;;;;;;10.82;100.00;96001.31;4994659;28;20410;-75
2024/02/12 07:02:18;;;;;;;0.75;0.55;;;;;;;10.86;100.00;95992.03;4994608;28;20129;-73
2024/02/12 07:04:47;;;;;;;0.47;0.40;;;;;;;10.88;100.00;95997.25;5003615;28;20073;-73
2024/02/12 07:07:13;;;;;;;0.73;0.35;;;;;;;10.89;100.00;95996.25;4993676;28;20080;-73
2024/02/12 07:09:38;;;;;;;1.33;0.85;;;;;;;11.08;100.00;96012.38;4991131;28;20475;-75
2024/02/12 07:12:06;;;;;;;1.10;0.45;;;;;;;11.28;100.00;96013.28;4998976;28;20034;-74
2024/02/12 07:14:32;;;;;;;3.15;1.67;;;;;;;11.42;100.00;96021.78;4980146;28;20064;-74
2024/02/12 07:16:58;;;;;;;2.38;1.02;;;;;;;11.44;100.00;96027.81;5010102;28;20485;-74
2024/02/12 07:19:26;;;;;;;1.80;1.65;;;;;;;11.38;100.00;96044.44;4984868;28;20034;-73
2024/02/12 07:21:52;;;;;;;0.70;0.70;;;;;;;11.37;100.00;96041.91;4994785;28;20065;-73
2024/02/12 07:24:17;;;;;;;2.38;0.63;;;;;;;11.37;100.00;96052.63;4990774;28;20057;-74
2024/02/12 07:26:43;;;;;;;0.60;0.57;;;;;;;11.50;100.00;96053.22;5001374;28;20101;-73
2024/02/12 07:29:08;;;;;;;0.50;0.40;;;;;;;11.55;100.00;96063.50;4990474;28;20109;-76
2024/02/12 07:31:35;;;;;;;8.30;4.03;;;;;;;11.41;100.00;96027.28;5003576;28;20030;-73
2024/02/12 07:34:03;;;;;;;0.95;0.88;;;;;;;11.61;100.00;96049.56;4976999;28;20069;-73
2024/02/12 07:36:28;;;;;;;2.47;2.00;;;;;;;11.51;100.00;96022.78;5006799;28;20168;-73
2024/02/12 07:38:54;;;;;;;0.65;0.65;;;;;;;11.51;100.00;96027.28;5003286;28;20084;-74
2024/02/12 07:41:20;;;;;;;6.20;2.80;;;;;;;11.78;100.00;96048.94;4982638;28;20144;-73
2024/02/12 07:43:46;;;;;;;6.93;1.85;;;;;;;11.87;100.00;96034.72;5010005;28;20124;-74
2024/02/12 07:46:14;;;;;;;0.20;0.20;;;;;;;12.10;100.00;96006.63;5001586;28;20164;-74
2024/02/12 07:48:41;;;;;;;0.90;0.75;;;;;;;12.38;100.00;96013.78;4984338;28;20521;-74
2024/02/12 07:51:07;;;;;;;0.57;0.50;;;;;;;12.48;100.00;95995.84;5002952;28;20374;-74
2024/02/12 07:53:33;;;;;;;0.32;0.32;;;;;;;12.66;100.00;96012.03;4985467;28;20030;-73
2024/02/12 07:55:58;;;;;;;2.75;1.23;;;;;;;12.76;100.00;96026.28;4997988;28;20049;-72
2024/02/12 07:58:24;;;;;;;1.40;0.88;;;;;;;12.80;100.00;96027.66;5005245;28;20029;-73
2024/02/12 08:00:50;;;;;;;0.80;0.80;;;;;;;12.83;100.00;96039.94;5005816;28;20076;-74
2024/02/12 08:03:19;;;;;;;0.80;0.80;;;;;;;12.66;100.00;96019.25;5004007;28;20058;-73
2024/02/12 08:05:49;;;;;;;3.70;1.05;;;;;;;12.68;100.00;96019.94;4995845;28;20101;-73
2024/02/12 08:08:16;;;;;;;0.00;0.00;;;;;;;12.69;100.00;96024.31;5005498;28;20021;-74
2024/02/12 08:10:42;;;;;;;0.05;0.05;;;;;;;12.71;100.00;96025.84;5009580;28;20152;-74
2024/02/12 08:13:08;;;;;;;0.65;0.40;;;;;;;12.69;100.00;96019.78;5010030;28;20041;-74
2024/02/12 08:15:34;;;;;;;0.20;0.20;;;;;;;12.67;100.00;96020.94;4974907;28;20030;-74
2024/02/12 08:18:00;;;;;;;1.98;0.70;;;;;;;12.59;100.00;96034.22;4998504;28;20060;-74
2024/02/12 08:20:26;;;;;;;0.45;0.20;;;;;;;12.54;100.00;96044.53;5006783;28;20432;-72
2024/02/12 08:22:55;;;;;;;0.65;0.52;;;;;;;12.50;100.00;96063.59;4994298;28;20478;-73
2024/02/12 08:25:21;;;;;;;2.03;1.13;;;;;;;12.43;100.00;96041.00;4973859;28;20113;-74
2024/02/12 08:27:47;;;;;;;0.57;0.57;;;;;;;12.40;100.00;96070.78;5002073;28;20109;-73
2024/02/12 08:30:15;;;;;;;0.20;0.20;;;;;;;12.33;100.00;96060.81;4980802;28;20104;-74
2024/02/12 08:32:42;;;;;;;4.97;0.90;;;;;;;12.26;100.00;96062.34;5003403;28;20416;-74
2024/02/12 08:35:08;;;;;;;0.32;0.32;;;;;;;12.21;100.00;96067.28;4984391;28;20038;-73
2024/02/12 08:37:37;;;;;;;0.77;0.57;;;;;;;12.24;100.00;96065.16;5000665;28;20494;-74
2024/02/12 08:40:13;;;;;;;0.85;0.50;;;;;;;12.22;100.00;96061.78;4982063;28;20029;-73
2024/02/12 08:42:44;;;;;;;0.10;0.10;;;;;;;12.18;100.00;96065.72;5006853;28;20128;-73
2024/02/12 08:45:10;;;;;;;0.53;0.30;;;;;;;12.20;100.00;96081.69;4992490;28;20093;-74
2024/02/12 08:47:37;;;;;;;0.40;0.40;;;;;;;12.21;100.00;96073.47;4992458;28;20462;-73
2024/02/12 08:50:03;;;;;;;2.28;1.33;;;;;;;12.24;100.00;96086.59;4989855;28;20068;-74
2024/02/12 08:52:31;;;;;;;0.70;0.60;;;;;;;12.22;100.00;96072.50;5001252;28;20507;-74
2024/02/12 08:54:59;;;;;;;2.15;0.50;;;;;;;12.17;100.00;96066.72;5007842;28;20026;-74
2024/02/12 08:57:27;;;;;;;1.08;0.50;;;;;;;12.18;100.00;96081.81;4987052;28;20042;-73
2024/02/12 08:59:54;;;;;;;0.32;0.32;;;;;;;12.22;100.00;96063.59;4979242;28;20448;-73
2024/02/12 09:02:21;;;;;;;0.38;0.38;;;;;;;12.36;100.00;96073.91;4987531;28;20111;-74
2024/02/12 09:04:48;;;;;;;7.32;1.17;;;;;;;12.50;100.00;96063.59;4995642;28;20038;-75
2024/02/12 09:07:14;;;;;;;5.50;1.48;;;;;;;12.56;100.00;96045.22;4987681;28;20101;-73
2024/02/12 09:09:40;;;;;;;1.75;0.60;;;;;;;12.78;100.00;96071.72;4983999;28;20501;-73
2024/02/12 09:12:06;;;;;;;0.20;0.20;;;;;;;12.98;100.00;96086.81;4990426;28;20108;-72
2024/02/12 09:14:31;;;;;;;0.22;0.22;;;;;;;13.26;100.00;96085.88;5012619;28;20122;-73
2024/02/12 09:16:58;;;;;;;1.45;0.88;;;;;;;13.46;100.00;96082.13;4990874;28;20104;-74
2024/02/12 09:19:23;;;;;;;0.47;0.47;;;;;;;13.57;100.00;96084.59;4996446;28;20037;-72
2024/02/12 09:21:49;;;;;;;3.63;1.77;;;;;;;13.81;100.00;96075.97;4987997;28;20026;-74
2024/02/12 09:24:16;;;;;;;0.70;0.50;;;;;;;14.03;100.00;96072.88;4996145;28;20025;-72
2024/02/12 09:26:41;;;;;;;1.95;0.90;;;;;;;14.11;100.00;96074.81;5012272;28;20017;-72
2024/02/12 09:29:07;;;;;;;0.93;0.77;;;;;;;14.29;100.00;96064.03;4993815;28;20033;-72
2024/02/12 09:31:33;;;;;;;5.68;1.10;;;;;;;14.65;100.00;96055.81;4992988;28;20494;-74
2024/02/12 09:34:02;;;;;;;0.10;0.10;;;;;;;15.01;100.00;96061.13;4996128;28;20026;-74
2024/02/12 09:36:29;;;;;;;0.63;0.63;;;;;;;15.25;100.00;96047.81;4995986;28;20034;-72
2024/02/12 09:38:54;;;;;;;0.45;0.30;;;;;;;15.41;98.09;96050.56;5012251;28;20025;-73
2024/02/12 09:41:26;;;;;;;0.25;0.25;;;;;;;15.80;95.84;96048.22;5013653;28;20025;-75
2024/02/12 09:43:53;;;;;;;19.75;3.45;;;;;;;15.88;96.62;96048.25;4990517;28;20026;-74
2024/02/12 09:46:19;;;;;;;23.27;4.65;;;;;;;16.06;91.42;96035.47;4995699;28;20426;-73
2024/02/12 09:48:46;;;;;;;14.35;3.80;;;;;;;16.41;89.06;96026.25;4990275;28;20029;-74
2024/02/12 09:51:13;;;;;;;26.60;7.53;;;;;;;17.10;84.87;96020.28;4995824;28;20034;-73
2024/02/12 09:53:42;;;;;;;25.23;4.65;;;;;;;17.79;75.13;96005.19;5012004;28;20030;-73
2024/02/12 09:56:07;;;;;;;15.35;2.58;;;;;;;18.14;72.79;96011.94;5011836;28;20055;-74
2024/02/12 09:58:33;;;;;;;11.00;1.70;;;;;;;18.91;65.59;96000.84;5004661;28;20520;-73
2024/02/12 10:01:02;;;;;;;13.10;2.10;;;;;;;20.90;58.70;95990.34;4992120;28;20113;-72
2024/02/12 10:03:28;;;;;;;11.30;2.75;;;;;;;21.79;55.36;95996.81;4978781;28;20057;-72
2024/02/12 10:05:53;;;;;;;12.68;2.40;;;;;;;22.47;49.36;95973.16;4983302;28;20034;-73
2024/02/12 10:08:21;;;;;;;13.27;2.33;;;;;;;22.82;47.24;95973.88;5001218;28;20154;-74
2024/02/12 10:10:47;;;;;;;11.52;3.05;;;;;;;23.29;46.94;95983.72;5006450;28;20606;-73
2024/02/12 10:13:14;;;;;;;14.48;3.78;;;;;;;24.64;44.41;95963.41;5007563;28;20033;-74
2024/02/12 10:15:40;;;;;;;20.98;3.67;;;;;;;25.58;42.65;95959.72;4983881;28;20038;-73
2024/02/12 10:18:10;;;;;;;11.73;3.15;;;;;;;25.89;40.92;95962.31;5003400;28;20026;-74
2024/02/12 10:20:39;;;;;;;32.22;13.27;;;;;;;23.98;44.16;95970.31;4982822;28;20486;-74
2024/02/12 10:23:09;;;;;;;37.38;7.55;;;;;;;24.45;43.96;95974.50;4976414;28;20046;-73
2024/02/12 10:25:48;;;;;;;17.65;3.25;;;;;;;24.75;42.87;95970.09;4980106;28;20037;-74
2024/02/12 10:28:18;;;;;;;12.27;2.70;;;;;;;24.79;42.49;95954.91;5010246;28;20025;-74
2024/02/12 10:30:47;;;;;;;6.03;1.85;;;;;;;24.45;41.00;95948.00;5011414;28;20504;-74
2024/02/12 10:33:13;;;;;;;20.35;3.42;;;;;;;23.78;41.45;95944.97;4984272;28;20414;-74
2024/02/12 10:35:43;;;;;;;19.27;3.28;;;;;;;23.46;43.29;95954.94;4995137;28;20042;-74
2024/02/12 10:38:11;;;;;;;17.33;3.17;;;;;;;22.81;44.72;95936.75;4984292;28;20022;-74
2024/02/12 10:40:46;;;;;;;14.98;3.58;;;;;;;22.87;45.07;95958.56;4999421;28;20034;-77
2024/02/12 10:43:15;;;;;;;13.93;3.50;;;;;;;22.54;44.59;95944.88;4996091;28;20018;-78
2024/02/12 10:45:44;;;;;;;12.52;3.08;;;;;;;21.20;46.17;95950.22;4976179;28;20065;-78
2024/02/12 10:48:10;;;;;;;18.05;3.53;;;;;;;20.81;47.47;95958.06;4999825;28;20037;-81
2024/02/12 10:50:36;;;;;;;22.33;3.92;;;;;;;20.80;46.24;95930.03;5008279;28;20211;-80
2024/02/12 10:53:04;;;;;;;18.27;2.67;;;;;;;19.55;48.73;95949.66;4991579;28;20030;-81
2024/02/12 10:55:30;;;;;;;30.05;2.75;;;;;;;18.90;54.70;95960.38;4997144;28;20033;-78
2024/02/12 10:57:56;;;;;;;14.75;2.80;;;;;;;18.88;56.36;95971.41;5008718;28;20073;-79
2024/02/12 11:00:23;;;;;;;21.05;2.97;;;;;;;19.44;55.27;95974.56;4986555;28;20038;-79
2024/02/12 11:02:50;;;;;;;17.45;2.83;;;;;;;19.92;52.39;95956.75;4994531;28;20061;-80
2024/02/12 11:05:20;;;;;;;22.58;3.85;;;;;;;19.39;51.93;95947.09;5011250;28;20029;-79
2024/02/12 11:07:47;;;;;;;17.35;2.83;;;;;;;19.66;49.48;95946.44;5011134;28;20016;-79
2024/02/12 11:10:18;;;;;;;17.50;4.13;;;;;;;19.26;51.50;95938.78;4986413;28;20113;-77
2024/02/12 11:12:49;;;;;;;23.98;3.30;;;;;;;19.07;53.53;95955.63;4997340;28;20483;-79
2024/02/12 11:15:24;;;;;;;17.80;4.10;;;;;;;18.90;53.62;95947.66;4982358;28;20179;-77
2024/02/12 11:17:50;;;;;;;19.40;3.20;;;;;;;18.49;56.00;95957.19;4994300;28;20061;-78
2024/02/12 11:20:21;;;;;;;21.05;2.80;;;;;;;18.14;56.29;95944.28;4976712;28;20509;-77
2024/02/12 11:22:48;;;;;;;14.00;2.58;;;;;;;17.60;60.63;95955.09;4997214;28;20054;-77
2024/02/12 11:25:23;;;;;;;23.30;3.22;;;;;;;17.31;65.81;95961.13;4974772;28;20097;-76
2024/02/12 11:27:50;;;;;;;18.80;3.35;;;;;;;17.14;67.08;95961.34;5005997;28;20046;-78
2024/02/12 11:30:16;;;;;;;17.92;3.17;;;;;;;17.39;68.07;95957.53;5002271;28;20041;-76
2024/02/12 11:32:45;;;;;;;16.35;3.70;;;;;;;17.32;71.45;95973.59;5009723;28;20383;-78
2024/02/12 11:35:12;;;;;;;14.25;2.88;;;;;;;17.34;69.13;95966.19;5003626;28;20044;-77
2024/02/12 11:37:46;;;;;;;22.77;3.50;;;;;;;17.41;64.74;95960.09;4998394;28;20129;-79
2024/02/12 11:40:20;;;;;;;11.55;3.38;;;;;;;17.19;69.27;95951.72;4992362;28;20114;-79
2024/02/12 11:42:50;;;;;;;13.90;2.97;;;;;;;17.22;67.49;95954.09;4998612;28;20201;-79